sensor_id;sensor_type;location;lat;lon;timestamp;temperature;humidity
12233;DHT22;6179;51.748;8.728;2022-07-04T00:04:45;17.80;89.50
12233;DHT22;6179;51.748;8.728;2022-07-04T00:10:46;17.70;90.20
12233;DHT22;6179;51.748;8.728;2022-07-04T00:16:47;17.70;90.00
12233;DHT22;6179;51.748;8.728;2022-07-04T00:22:48;17.40;91.00
12233;DHT22;6179;51.748;8.728;2022-07-04T00:28:48;17.30;91.60
12233;DHT22;6179;51.748;8.728;2022-07-04T00:34:49;17.20;91.90
12233;DHT22;6179;51.748;8.728;2022-07-04T00:40:50;17.00;92.60
12233;DHT22;6179;51.748;8.728;2022-07-04T00:46:51;16.90;93.30
12233;DHT22;6179;51.748;8.728;2022-07-04T00:52:53;16.90;93.30
12233;DHT22;6179;51.748;8.728;2022-07-04T00:58:54;16.90;93.40
12233;DHT22;6179;51.748;8.728;2022-07-04T01:04:55;16.90;94.10
12233;DHT22;6179;51.748;8.728;2022-07-04T01:10:56;17.00;93.70
12233;DHT22;6179;51.748;8.728;2022-07-04T01:16:57;17.10;93.50
12233;DHT22;6179;51.748;8.728;2022-07-04T01:22:58;17.10;93.30
12233;DHT22;6179;51.748;8.728;2022-07-04T01:28:58;17.20;92.90
12233;DHT22;6179;51.748;8.728;2022-07-04T01:34:59;17.30;92.90
12233;DHT22;6179;51.748;8.728;2022-07-04T01:41:00;17.40;92.70
12233;DHT22;6179;51.748;8.728;2022-07-04T01:47:01;17.20;93.20
12233;DHT22;6179;51.748;8.728;2022-07-04T01:53:03;17.10;94.00
12233;DHT22;6179;51.748;8.728;2022-07-04T01:59:04;16.90;93.80
12233;DHT22;6179;51.748;8.728;2022-07-04T02:05:05;16.90;94.30
12233;DHT22;6179;51.748;8.728;2022-07-04T02:11:06;16.90;93.80
12233;DHT22;6179;51.748;8.728;2022-07-04T02:17:07;16.60;94.90
12233;DHT22;6179;51.748;8.728;2022-07-04T02:23:08;16.70;94.50
12233;DHT22;6179;51.748;8.728;2022-07-04T02:29:09;16.40;95.50
12233;DHT22;6179;51.748;8.728;2022-07-04T02:35:10;16.70;94.30
12233;DHT22;6179;51.748;8.728;2022-07-04T02:41:11;16.80;93.80
12233;DHT22;6179;51.748;8.728;2022-07-04T02:47:12;16.80;93.60
12233;DHT22;6179;51.748;8.728;2022-07-04T02:53:13;16.70;94.10
12233;DHT22;6179;51.748;8.728;2022-07-04T02:59:13;16.60;93.10
12233;DHT22;6179;51.748;8.728;2022-07-04T03:05:14;16.30;93.80
12233;DHT22;6179;51.748;8.728;2022-07-04T03:11:15;16.00;92.50
12233;DHT22;6179;51.748;8.728;2022-07-04T03:17:16;15.70;93.40
12233;DHT22;6179;51.748;8.728;2022-07-04T03:23:17;15.30;94.30
12233;DHT22;6179;51.748;8.728;2022-07-04T03:29:18;15.30;93.30
12233;DHT22;6179;51.748;8.728;2022-07-04T03:35:19;15.20;92.80
12233;DHT22;6179;51.748;8.728;2022-07-04T03:41:20;15.50;91.50
12233;DHT22;6179;51.748;8.728;2022-07-04T03:47:20;15.70;90.40
12233;DHT22;6179;51.748;8.728;2022-07-04T03:53:21;15.20;91.60
12233;DHT22;6179;51.748;8.728;2022-07-04T03:59:22;15.30;91.30
12233;DHT22;6179;51.748;8.728;2022-07-04T04:05:24;15.30;91.50
12233;DHT22;6179;51.748;8.728;2022-07-04T04:11:28;15.20;91.40
12233;DHT22;6179;51.748;8.728;2022-07-04T04:17:28;15.10;93.00
12233;DHT22;6179;51.748;8.728;2022-07-04T04:23:29;15.80;91.50
12233;DHT22;6179;51.748;8.728;2022-07-04T04:29:30;16.00;91.20
12233;DHT22;6179;51.748;8.728;2022-07-04T04:35:31;16.20;91.60
12233;DHT22;6179;51.748;8.728;2022-07-04T04:41:32;16.20;90.70
12233;DHT22;6179;51.748;8.728;2022-07-04T04:47:32;16.30;89.80
12233;DHT22;6179;51.748;8.728;2022-07-04T04:53:33;16.10;90.90
12233;DHT22;6179;51.748;8.728;2022-07-04T04:59:34;16.00;90.90
12233;DHT22;6179;51.748;8.728;2022-07-04T05:05:35;16.40;90.80
12233;DHT22;6179;51.748;8.728;2022-07-04T05:11:36;16.20;91.10
12233;DHT22;6179;51.748;8.728;2022-07-04T05:17:37;16.70;89.30
12233;DHT22;6179;51.748;8.728;2022-07-04T05:23:38;16.50;90.60
12233;DHT22;6179;51.748;8.728;2022-07-04T05:29:39;16.40;91.80
12233;DHT22;6179;51.748;8.728;2022-07-04T05:35:40;16.40;91.00
12233;DHT22;6179;51.748;8.728;2022-07-04T05:41:40;16.80;90.70
12233;DHT22;6179;51.748;8.728;2022-07-04T05:47:42;16.90;90.10
12233;DHT22;6179;51.748;8.728;2022-07-04T05:53:44;16.70;90.00
12233;DHT22;6179;51.748;8.728;2022-07-04T05:59:45;16.70;92.00
12233;DHT22;6179;51.748;8.728;2022-07-04T06:05:45;17.20;90.80
12233;DHT22;6179;51.748;8.728;2022-07-04T06:11:46;17.10;92.20
12233;DHT22;6179;51.748;8.728;2022-07-04T06:17:47;17.10;91.60
12233;DHT22;6179;51.748;8.728;2022-07-04T06:23:48;17.60;89.80
12233;DHT22;6179;51.748;8.728;2022-07-04T06:29:49;17.70;91.10
12233;DHT22;6179;51.748;8.728;2022-07-04T06:35:50;18.20;90.90
12233;DHT22;6179;51.748;8.728;2022-07-04T06:41:56;18.20;90.50
12233;DHT22;6179;51.748;8.728;2022-07-04T06:47:57;18.70;89.50
12233;DHT22;6179;51.748;8.728;2022-07-04T06:53:58;18.60;89.80
12233;DHT22;6179;51.748;8.728;2022-07-04T06:59:59;18.90;90.30
12233;DHT22;6179;51.748;8.728;2022-07-04T07:06:00;19.30;86.10
12233;DHT22;6179;51.748;8.728;2022-07-04T07:12:03;19.00;88.90
12233;DHT22;6179;51.748;8.728;2022-07-04T07:18:04;19.20;88.20
12233;DHT22;6179;51.748;8.728;2022-07-04T07:24:05;19.10;87.20
12233;DHT22;6179;51.748;8.728;2022-07-04T07:30:07;19.30;86.50
12233;DHT22;6179;51.748;8.728;2022-07-04T07:36:09;19.70;87.30
12233;DHT22;6179;51.748;8.728;2022-07-04T07:42:09;20.00;81.30
12233;DHT22;6179;51.748;8.728;2022-07-04T07:48:10;20.00;82.60
12233;DHT22;6179;51.748;8.728;2022-07-04T07:54:11;19.70;83.90
12233;DHT22;6179;51.748;8.728;2022-07-04T08:00:14;19.50;84.10
12233;DHT22;6179;51.748;8.728;2022-07-04T08:06:16;19.80;82.80
12233;DHT22;6179;51.748;8.728;2022-07-04T08:12:17;19.90;80.60
12233;DHT22;6179;51.748;8.728;2022-07-04T08:18:18;20.10;79.90
12233;DHT22;6179;51.748;8.728;2022-07-04T08:24:19;20.50;79.20
12233;DHT22;6179;51.748;8.728;2022-07-04T08:30:20;20.90;79.40
12233;DHT22;6179;51.748;8.728;2022-07-04T08:36:21;21.60;74.10
12233;DHT22;6179;51.748;8.728;2022-07-04T08:42:22;21.10;74.50
12233;DHT22;6179;51.748;8.728;2022-07-04T08:48:30;21.40;72.90
12233;DHT22;6179;51.748;8.728;2022-07-04T08:54:32;21.40;74.00
12233;DHT22;6179;51.748;8.728;2022-07-04T09:00:53;21.80;73.30
12233;DHT22;6179;51.748;8.728;2022-07-04T09:06:54;21.60;72.10
12233;DHT22;6179;51.748;8.728;2022-07-04T09:12:58;21.60;72.20
12233;DHT22;6179;51.748;8.728;2022-07-04T09:19:03;21.70;71.60
12233;DHT22;6179;51.748;8.728;2022-07-04T09:25:11;22.30;69.90
12233;DHT22;6179;51.748;8.728;2022-07-04T09:31:36;22.40;71.60
12233;DHT22;6179;51.748;8.728;2022-07-04T09:37:40;22.70;67.90
12233;DHT22;6179;51.748;8.728;2022-07-04T09:44:04;22.00;71.10
12233;DHT22;6179;51.748;8.728;2022-07-04T09:50:11;21.90;69.40
12233;DHT22;6179;51.748;8.728;2022-07-04T09:56:14;21.90;67.10
12233;DHT22;6179;51.748;8.728;2022-07-04T10:02:17;22.10;69.30
12233;DHT22;6179;51.748;8.728;2022-07-04T10:08:19;21.90;70.50
12233;DHT22;6179;51.748;8.728;2022-07-04T10:14:19;22.90;67.30
12233;DHT22;6179;51.748;8.728;2022-07-04T10:20:21;23.30;64.00
12233;DHT22;6179;51.748;8.728;2022-07-04T10:26:22;22.80;68.60
12233;DHT22;6179;51.748;8.728;2022-07-04T10:32:23;22.70;69.80
12233;DHT22;6179;51.748;8.728;2022-07-04T10:38:30;22.80;68.80
12233;DHT22;6179;51.748;8.728;2022-07-04T10:44:45;23.30;64.50
12233;DHT22;6179;51.748;8.728;2022-07-04T10:57:18;23.40;65.50
12233;DHT22;6179;51.748;8.728;2022-07-04T11:03:19;22.90;67.80
12233;DHT22;6179;51.748;8.728;2022-07-04T11:09:22;23.00;66.80
12233;DHT22;6179;51.748;8.728;2022-07-04T11:21:36;23.30;64.60
12233;DHT22;6179;51.748;8.728;2022-07-04T11:27:39;23.40;70.60
12233;DHT22;6179;51.748;8.728;2022-07-04T11:33:40;23.20;66.10
12233;DHT22;6179;51.748;8.728;2022-07-04T11:39:41;24.00;64.00
12233;DHT22;6179;51.748;8.728;2022-07-04T11:45:42;24.20;62.10
12233;DHT22;6179;51.748;8.728;2022-07-04T11:51:46;23.80;66.10
12233;DHT22;6179;51.748;8.728;2022-07-04T11:57:49;23.80;64.10
12233;DHT22;6179;51.748;8.728;2022-07-04T12:03:52;23.60;65.20
12233;DHT22;6179;51.748;8.728;2022-07-04T12:09:54;23.80;67.50
12233;DHT22;6179;51.748;8.728;2022-07-04T12:15:55;24.00;63.50
12233;DHT22;6179;51.748;8.728;2022-07-04T12:21:56;24.40;63.40
12233;DHT22;6179;51.748;8.728;2022-07-04T12:27:59;24.50;67.40
12233;DHT22;6179;51.748;8.728;2022-07-04T12:34:00;24.90;60.40
12233;DHT22;6179;51.748;8.728;2022-07-04T12:40:08;24.40;60.90
12233;DHT22;6179;51.748;8.728;2022-07-04T12:52:27;24.90;60.00
12233;DHT22;6179;51.748;8.728;2022-07-04T12:58:28;24.70;59.80
12233;DHT22;6179;51.748;8.728;2022-07-04T13:04:29;25.00;57.20
12233;DHT22;6179;51.748;8.728;2022-07-04T13:10:31;25.30;59.20
12233;DHT22;6179;51.748;8.728;2022-07-04T13:16:33;24.90;61.00
12233;DHT22;6179;51.748;8.728;2022-07-04T13:22:34;24.90;63.70
12233;DHT22;6179;51.748;8.728;2022-07-04T13:28:35;25.20;63.60
12233;DHT22;6179;51.748;8.728;2022-07-04T13:34:36;25.50;62.50
12233;DHT22;6179;51.748;8.728;2022-07-04T13:40:36;25.40;60.80
12233;DHT22;6179;51.748;8.728;2022-07-04T13:46:37;25.00;59.50
12233;DHT22;6179;51.748;8.728;2022-07-04T13:52:38;25.30;59.50
12233;DHT22;6179;51.748;8.728;2022-07-04T13:58:38;25.80;54.30
12233;DHT22;6179;51.748;8.728;2022-07-04T14:04:39;25.90;57.80
12233;DHT22;6179;51.748;8.728;2022-07-04T14:10:40;25.50;58.30
12233;DHT22;6179;51.748;8.728;2022-07-04T14:16:41;25.50;54.70
12233;DHT22;6179;51.748;8.728;2022-07-04T14:22:44;24.70;58.10
12233;DHT22;6179;51.748;8.728;2022-07-04T14:28:45;25.30;55.40
12233;DHT22;6179;51.748;8.728;2022-07-04T14:34:46;25.50;63.70
12233;DHT22;6179;51.748;8.728;2022-07-04T14:40:47;25.80;58.60
12233;DHT22;6179;51.748;8.728;2022-07-04T14:46:49;26.40;54.90
12233;DHT22;6179;51.748;8.728;2022-07-04T14:52:50;25.40;56.90
12233;DHT22;6179;51.748;8.728;2022-07-04T14:58:51;25.10;58.90
12233;DHT22;6179;51.748;8.728;2022-07-04T15:04:51;25.50;57.70
12233;DHT22;6179;51.748;8.728;2022-07-04T15:10:52;25.60;54.60
12233;DHT22;6179;51.748;8.728;2022-07-04T15:16:53;25.60;55.00
12233;DHT22;6179;51.748;8.728;2022-07-04T15:22:53;25.60;56.70
12233;DHT22;6179;51.748;8.728;2022-07-04T15:29:13;25.60;56.50
12233;DHT22;6179;51.748;8.728;2022-07-04T15:35:14;25.50;54.90
12233;DHT22;6179;51.748;8.728;2022-07-04T15:41:14;25.80;53.80
12233;DHT22;6179;51.748;8.728;2022-07-04T15:47:16;25.70;57.40
12233;DHT22;6179;51.748;8.728;2022-07-04T15:53:18;26.00;54.50
12233;DHT22;6179;51.748;8.728;2022-07-04T15:59:19;25.60;58.20
12233;DHT22;6179;51.748;8.728;2022-07-04T16:05:20;25.30;53.60
12233;DHT22;6179;51.748;8.728;2022-07-04T16:11:21;25.30;55.70
12233;DHT22;6179;51.748;8.728;2022-07-04T16:17:22;25.20;54.80
12233;DHT22;6179;51.748;8.728;2022-07-04T16:23:23;25.30;58.00
12233;DHT22;6179;51.748;8.728;2022-07-04T16:29:23;25.00;58.00
12233;DHT22;6179;51.748;8.728;2022-07-04T16:35:24;25.00;58.10
12233;DHT22;6179;51.748;8.728;2022-07-04T16:41:25;24.80;58.00
12233;DHT22;6179;51.748;8.728;2022-07-04T16:47:26;24.90;55.60
12233;DHT22;6179;51.748;8.728;2022-07-04T16:53:27;25.20;56.00
12233;DHT22;6179;51.748;8.728;2022-07-04T16:59:28;25.10;57.30
12233;DHT22;6179;51.748;8.728;2022-07-04T17:05:29;24.90;56.60
12233;DHT22;6179;51.748;8.728;2022-07-04T17:11:30;24.80;57.00
12233;DHT22;6179;51.748;8.728;2022-07-04T17:17:31;24.50;56.80
12233;DHT22;6179;51.748;8.728;2022-07-04T17:23:32;24.50;58.80
12233;DHT22;6179;51.748;8.728;2022-07-04T17:29:33;24.40;58.00
12233;DHT22;6179;51.748;8.728;2022-07-04T17:35:38;24.50;57.90
12233;DHT22;6179;51.748;8.728;2022-07-04T17:41:39;24.40;59.20
12233;DHT22;6179;51.748;8.728;2022-07-04T17:47:50;24.50;57.70
12233;DHT22;6179;51.748;8.728;2022-07-04T17:53:51;24.20;59.60
12233;DHT22;6179;51.748;8.728;2022-07-04T17:59:52;24.10;58.80
12233;DHT22;6179;51.748;8.728;2022-07-04T18:05:52;24.10;60.00
12233;DHT22;6179;51.748;8.728;2022-07-04T18:11:53;24.10;58.20
12233;DHT22;6179;51.748;8.728;2022-07-04T18:17:54;23.90;58.80
12233;DHT22;6179;51.748;8.728;2022-07-04T18:23:54;23.90;60.70
12233;DHT22;6179;51.748;8.728;2022-07-04T18:29:55;24.10;60.30
12233;DHT22;6179;51.748;8.728;2022-07-04T18:35:56;24.00;62.10
12233;DHT22;6179;51.748;8.728;2022-07-04T18:41:57;24.20;60.50
12233;DHT22;6179;51.748;8.728;2022-07-04T18:48:16;24.10;60.90
12233;DHT22;6179;51.748;8.728;2022-07-04T18:54:17;24.10;60.80
12233;DHT22;6179;51.748;8.728;2022-07-04T19:00:18;23.50;63.70
12233;DHT22;6179;51.748;8.728;2022-07-04T19:06:18;23.30;64.00
12233;DHT22;6179;51.748;8.728;2022-07-04T19:12:19;23.00;65.30
12233;DHT22;6179;51.748;8.728;2022-07-04T19:18:20;22.80;64.80
12233;DHT22;6179;51.748;8.728;2022-07-04T19:24:23;22.70;65.90
12233;DHT22;6179;51.748;8.728;2022-07-04T19:30:24;22.40;67.20
12233;DHT22;6179;51.748;8.728;2022-07-04T19:36:25;22.30;67.70
12233;DHT22;6179;51.748;8.728;2022-07-04T19:42:27;22.20;68.00
12233;DHT22;6179;51.748;8.728;2022-07-04T19:48:28;22.20;67.20
12233;DHT22;6179;51.748;8.728;2022-07-04T19:54:29;22.50;66.60
12233;DHT22;6179;51.748;8.728;2022-07-04T20:00:30;22.00;69.30
12233;DHT22;6179;51.748;8.728;2022-07-04T20:06:31;21.80;69.00
12233;DHT22;6179;51.748;8.728;2022-07-04T20:12:32;21.70;69.50
12233;DHT22;6179;51.748;8.728;2022-07-04T20:18:33;21.50;70.50
12233;DHT22;6179;51.748;8.728;2022-07-04T20:24:33;21.30;70.90
12233;DHT22;6179;51.748;8.728;2022-07-04T20:30:34;21.10;72.30
12233;DHT22;6179;51.748;8.728;2022-07-04T20:36:35;20.80;73.90
12233;DHT22;6179;51.748;8.728;2022-07-04T20:42:36;20.40;75.50
12233;DHT22;6179;51.748;8.728;2022-07-04T20:48:38;20.40;75.80
12233;DHT22;6179;51.748;8.728;2022-07-04T20:54:42;20.20;76.40
12233;DHT22;6179;51.748;8.728;2022-07-04T21:00:42;20.10;77.30
12233;DHT22;6179;51.748;8.728;2022-07-04T21:06:44;20.00;77.90
12233;DHT22;6179;51.748;8.728;2022-07-04T21:12:46;19.80;77.80
12233;DHT22;6179;51.748;8.728;2022-07-04T21:18:47;19.70;78.10
12233;DHT22;6179;51.748;8.728;2022-07-04T21:24:48;19.50;79.10
12233;DHT22;6179;51.748;8.728;2022-07-04T21:30:48;19.50;79.40
12233;DHT22;6179;51.748;8.728;2022-07-04T21:36:49;19.30;79.00
12233;DHT22;6179;51.748;8.728;2022-07-04T21:42:50;19.20;80.50
12233;DHT22;6179;51.748;8.728;2022-07-04T21:48:51;19.30;79.90
12233;DHT22;6179;51.748;8.728;2022-07-04T21:54:52;19.20;80.70
12233;DHT22;6179;51.748;8.728;2022-07-04T22:00:52;19.20;80.30
12233;DHT22;6179;51.748;8.728;2022-07-04T22:06:53;19.20;79.90
12233;DHT22;6179;51.748;8.728;2022-07-04T22:12:54;19.00;80.80
12233;DHT22;6179;51.748;8.728;2022-07-04T22:18:55;18.90;80.50
12233;DHT22;6179;51.748;8.728;2022-07-04T22:24:55;19.00;80.00
12233;DHT22;6179;51.748;8.728;2022-07-04T22:30:56;19.00;80.70
12233;DHT22;6179;51.748;8.728;2022-07-04T22:36:57;18.90;81.60
12233;DHT22;6179;51.748;8.728;2022-07-04T22:42:57;18.80;81.10
12233;DHT22;6179;51.748;8.728;2022-07-04T22:48:58;18.80;81.50
12233;DHT22;6179;51.748;8.728;2022-07-04T22:54:59;18.60;82.10
12233;DHT22;6179;51.748;8.728;2022-07-04T23:00:59;18.40;83.10
12233;DHT22;6179;51.748;8.728;2022-07-04T23:07:00;18.20;83.40
12233;DHT22;6179;51.748;8.728;2022-07-04T23:13:01;18.00;84.40
12233;DHT22;6179;51.748;8.728;2022-07-04T23:19:01;17.80;84.60
12233;DHT22;6179;51.748;8.728;2022-07-04T23:25:02;17.60;85.30
12233;DHT22;6179;51.748;8.728;2022-07-04T23:31:03;17.40;85.50
12233;DHT22;6179;51.748;8.728;2022-07-04T23:37:04;17.30;85.80
12233;DHT22;6179;51.748;8.728;2022-07-04T23:43:04;17.20;86.20
12233;DHT22;6179;51.748;8.728;2022-07-04T23:49:05;17.10;86.10
12233;DHT22;6179;51.748;8.728;2022-07-04T23:55:06;17.00;86.80
